sensor_id;sensor_type;location;lat;lon;timestamp;P1;P2;P0
55043;PMS5003;54902;50.420;18.854;2022-11-15T00:00:08;55;45;24
55043;PMS5003;54902;50.420;18.854;2022-11-15T00:00:40;55;45;24
55043;PMS5003;54902;50.420;18.854;2022-11-15T00:01:15;55;45;24
55043;PMS5003;54902;50.420;18.854;2022-11-15T00:01:48;55;45;24
55043;PMS5003;54902;50.420;18.854;2022-11-15T00:02:19;48;40;22
55043;PMS5003;54902;50.420;18.854;2022-11-15T00:02:53;48;40;22
55043;PMS5003;54902;50.420;18.854;2022-11-15T00:03:26;39;37;22
55043;PMS5003;54902;50.420;18.854;2022-11-15T00:03:58;39;37;22
55043;PMS5003;54902;50.420;18.854;2022-11-15T00:04:28;39;37;22
55043;PMS5003;54902;50.420;18.854;2022-11-15T00:04:59;39;37;22
55043;PMS5003;54902;50.420;18.854;2022-11-15T00:05:33;39;37;22
55043;PMS5003;54902;50.420;18.854;2022-11-15T00:06:06;39;37;22
55043;PMS5003;54902;50.420;18.854;2022-11-15T00:06:37;39;37;22
55043;PMS5003;54902;50.420;18.854;2022-11-15T00:07:08;39;37;22
55043;PMS5003;54902;50.420;18.854;2022-11-15T00:07:38;39;37;22
55043;PMS5003;54902;50.420;18.854;2022-11-15T00:08:09;39;37;22
55043;PMS5003;54902;50.420;18.854;2022-11-15T00:08:40;54;49;31
55043;PMS5003;54902;50.420;18.854;2022-11-15T00:09:11;54;49;31
55043;PMS5003;54902;50.420;18.854;2022-11-15T00:09:42;54;49;31
55043;PMS5003;54902;50.420;18.854;2022-11-15T00:10:13;54;49;31
55043;PMS5003;54902;50.420;18.854;2022-11-15T00:11:27;54;49;31
55043;PMS5003;54902;50.420;18.854;2022-11-15T00:11:59;54;49;31
55043;PMS5003;54902;50.420;18.854;2022-11-15T00:12:29;54;49;31
55043;PMS5003;54902;50.420;18.854;2022-11-15T00:13:04;54;49;31
55043;PMS5003;54902;50.420;18.854;2022-11-15T00:13:39;54;49;31
55043;PMS5003;54902;50.420;18.854;2022-11-15T00:14:11;54;49;31
55043;PMS5003;54902;50.420;18.854;2022-11-15T00:14:42;54;49;31
55043;PMS5003;54902;50.420;18.854;2022-11-15T00:15:13;54;49;31
55043;PMS5003;54902;50.420;18.854;2022-11-15T00:15:44;54;49;31
55043;PMS5003;54902;50.420;18.854;2022-11-15T00:16:15;54;49;31
55043;PMS5003;54902;50.420;18.854;2022-11-15T00:16:46;54;49;31
55043;PMS5003;54902;50.420;18.854;2022-11-15T00:17:16;54;49;31
55043;PMS5003;54902;50.420;18.854;2022-11-15T00:17:50;54;49;31
55043;PMS5003;54902;50.420;18.854;2022-11-15T00:18:21;47;43;26
55043;PMS5003;54902;50.420;18.854;2022-11-15T00:18:52;47;43;26
55043;PMS5003;54902;50.420;18.854;2022-11-15T00:19:23;34;32;15
55043;PMS5003;54902;50.420;18.854;2022-11-15T00:19:54;34;32;15
55043;PMS5003;54902;50.420;18.854;2022-11-15T00:20:25;34;32;15
55043;PMS5003;54902;50.420;18.854;2022-11-15T00:20:56;34;32;15
55043;PMS5003;54902;50.420;18.854;2022-11-15T00:21:40;34;32;15
55043;PMS5003;54902;50.420;18.854;2022-11-15T00:22:13;39;36;20
55043;PMS5003;54902;50.420;18.854;2022-11-15T00:22:44;39;36;20
55043;PMS5003;54902;50.420;18.854;2022-11-15T00:23:15;39;36;20
55043;PMS5003;54902;50.420;18.854;2022-11-15T00:23:46;39;36;20
55043;PMS5003;54902;50.420;18.854;2022-11-15T00:24:17;39;36;20
55043;PMS5003;54902;50.420;18.854;2022-11-15T00:24:48;52;44;26
55043;PMS5003;54902;50.420;18.854;2022-11-15T00:25:19;52;44;26
55043;PMS5003;54902;50.420;18.854;2022-11-15T00:26:28;52;44;26
55043;PMS5003;54902;50.420;18.854;2022-11-15T00:26:59;52;44;26
55043;PMS5003;54902;50.420;18.854;2022-11-15T00:27:30;52;44;26
55043;PMS5003;54902;50.420;18.854;2022-11-15T00:28:01;52;44;26
55043;PMS5003;54902;50.420;18.854;2022-11-15T00:28:32;52;44;26
55043;PMS5003;54902;50.420;18.854;2022-11-15T00:29:03;52;44;26
55043;PMS5003;54902;50.420;18.854;2022-11-15T00:29:34;52;44;26
55043;PMS5003;54902;50.420;18.854;2022-11-15T00:30:05;63;52;30
55043;PMS5003;54902;50.420;18.854;2022-11-15T00:30:36;63;52;30
55043;PMS5003;54902;50.420;18.854;2022-11-15T00:31:09;63;52;30
55043;PMS5003;54902;50.420;18.854;2022-11-15T00:31:42;63;52;30
55043;PMS5003;54902;50.420;18.854;2022-11-15T00:32:13;63;52;30
55043;PMS5003;54902;50.420;18.854;2022-11-15T00:32:44;63;52;30
55043;PMS5003;54902;50.420;18.854;2022-11-15T00:33:15;63;52;30
55043;PMS5003;54902;50.420;18.854;2022-11-15T00:33:45;63;52;30
55043;PMS5003;54902;50.420;18.854;2022-11-15T00:34:16;63;52;30
55043;PMS5003;54902;50.420;18.854;2022-11-15T00:34:47;63;52;30
55043;PMS5003;54902;50.420;18.854;2022-11-15T00:35:18;63;52;30
55043;PMS5003;54902;50.420;18.854;2022-11-15T00:35:49;63;52;30
55043;PMS5003;54902;50.420;18.854;2022-11-15T00:36:20;33;30;18
55043;PMS5003;54902;50.420;18.854;2022-11-15T00:36:51;33;30;18
55043;PMS5003;54902;50.420;18.854;2022-11-15T00:37:22;33;30;18
55043;PMS5003;54902;50.420;18.854;2022-11-15T00:37:53;33;30;18
55043;PMS5003;54902;50.420;18.854;2022-11-15T00:38:24;33;30;18
55043;PMS5003;54902;50.420;18.854;2022-11-15T00:38:55;33;30;18
55043;PMS5003;54902;50.420;18.854;2022-11-15T00:39:26;33;30;18
55043;PMS5003;54902;50.420;18.854;2022-11-15T00:39:57;33;30;18
55043;PMS5003;54902;50.420;18.854;2022-11-15T00:40:28;50;46;28
55043;PMS5003;54902;50.420;18.854;2022-11-15T00:40:59;50;46;28
55043;PMS5003;54902;50.420;18.854;2022-11-15T00:41:30;50;46;28
55043;PMS5003;54902;50.420;18.854;2022-11-15T00:42:01;50;46;28
55043;PMS5003;54902;50.420;18.854;2022-11-15T00:42:32;50;46;28
55043;PMS5003;54902;50.420;18.854;2022-11-15T00:43:03;50;46;28
55043;PMS5003;54902;50.420;18.854;2022-11-15T00:43:34;50;46;28
55043;PMS5003;54902;50.420;18.854;2022-11-15T00:44:06;50;46;28
55043;PMS5003;54902;50.420;18.854;2022-11-15T00:44:37;50;46;28
55043;PMS5003;54902;50.420;18.854;2022-11-15T00:45:08;50;46;28
55043;PMS5003;54902;50.420;18.854;2022-11-15T00:45:40;52;48;30
55043;PMS5003;54902;50.420;18.854;2022-11-15T00:46:10;52;48;30
55043;PMS5003;54902;50.420;18.854;2022-11-15T00:46:41;52;48;30
55043;PMS5003;54902;50.420;18.854;2022-11-15T00:47:12;52;48;30
55043;PMS5003;54902;50.420;18.854;2022-11-15T00:47:44;52;48;30
55043;PMS5003;54902;50.420;18.854;2022-11-15T00:48:16;52;48;30
55043;PMS5003;54902;50.420;18.854;2022-11-15T00:48:47;52;48;30
55043;PMS5003;54902;50.420;18.854;2022-11-15T00:49:18;52;48;30
55043;PMS5003;54902;50.420;18.854;2022-11-15T00:49:49;52;48;30
55043;PMS5003;54902;50.420;18.854;2022-11-15T00:50:20;52;48;30
55043;PMS5003;54902;50.420;18.854;2022-11-15T00:50:51;52;48;30
55043;PMS5003;54902;50.420;18.854;2022-11-15T00:51:22;52;48;30
55043;PMS5003;54902;50.420;18.854;2022-11-15T00:51:53;52;48;30
55043;PMS5003;54902;50.420;18.854;2022-11-15T00:52:23;52;48;30
55043;PMS5003;54902;50.420;18.854;2022-11-15T00:52:54;52;48;30
55043;PMS5003;54902;50.420;18.854;2022-11-15T00:53:25;52;48;30
55043;PMS5003;54902;50.420;18.854;2022-11-15T00:53:57;52;48;30
55043;PMS5003;54902;50.420;18.854;2022-11-15T00:54:28;52;48;30
55043;PMS5003;54902;50.420;18.854;2022-11-15T00:54:59;52;48;30
55043;PMS5003;54902;50.420;18.854;2022-11-15T00:55:30;52;48;30
55043;PMS5003;54902;50.420;18.854;2022-11-15T00:56:01;52;48;30
55043;PMS5003;54902;50.420;18.854;2022-11-15T00:56:32;52;48;30
55043;PMS5003;54902;50.420;18.854;2022-11-15T00:57:03;52;48;30
55043;PMS5003;54902;50.420;18.854;2022-11-15T00:57:34;52;48;30
55043;PMS5003;54902;50.420;18.854;2022-11-15T00:58:05;52;48;30
55043;PMS5003;54902;50.420;18.854;2022-11-15T00:58:37;52;48;30
55043;PMS5003;54902;50.420;18.854;2022-11-15T00:59:08;52;48;30
55043;PMS5003;54902;50.420;18.854;2022-11-15T00:59:39;52;48;30
55043;PMS5003;54902;50.420;18.854;2022-11-15T01:00:10;52;48;30
55043;PMS5003;54902;50.420;18.854;2022-11-15T01:00:42;52;48;30
55043;PMS5003;54902;50.420;18.854;2022-11-15T01:01:13;52;48;30
55043;PMS5003;54902;50.420;18.854;2022-11-15T01:01:45;52;48;30
55043;PMS5003;54902;50.420;18.854;2022-11-15T01:02:16;52;48;30
55043;PMS5003;54902;50.420;18.854;2022-11-15T01:02:47;52;48;30
55043;PMS5003;54902;50.420;18.854;2022-11-15T01:03:18;52;48;30
55043;PMS5003;54902;50.420;18.854;2022-11-15T01:03:49;52;48;30
55043;PMS5003;54902;50.420;18.854;2022-11-15T01:04:20;42;39;25
55043;PMS5003;54902;50.420;18.854;2022-11-15T01:04:51;42;39;25
55043;PMS5003;54902;50.420;18.854;2022-11-15T01:05:22;42;39;25
55043;PMS5003;54902;50.420;18.854;2022-11-15T01:05:53;42;39;25
55043;PMS5003;54902;50.420;18.854;2022-11-15T01:06:24;43;39;24
55043;PMS5003;54902;50.420;18.854;2022-11-15T01:06:55;43;39;24
55043;PMS5003;54902;50.420;18.854;2022-11-15T01:07:26;43;39;24
55043;PMS5003;54902;50.420;18.854;2022-11-15T01:07:57;43;39;24
55043;PMS5003;54902;50.420;18.854;2022-11-15T01:08:28;43;39;24
55043;PMS5003;54902;50.420;18.854;2022-11-15T01:08:59;43;39;24
55043;PMS5003;54902;50.420;18.854;2022-11-15T01:09:30;43;39;24
55043;PMS5003;54902;50.420;18.854;2022-11-15T01:10:01;43;39;24
55043;PMS5003;54902;50.420;18.854;2022-11-15T01:10:32;43;39;24
55043;PMS5003;54902;50.420;18.854;2022-11-15T01:11:04;43;39;24
55043;PMS5003;54902;50.420;18.854;2022-11-15T01:11:36;54;49;30
55043;PMS5003;54902;50.420;18.854;2022-11-15T01:12:07;54;49;30
55043;PMS5003;54902;50.420;18.854;2022-11-15T01:12:38;54;49;30
55043;PMS5003;54902;50.420;18.854;2022-11-15T01:13:09;54;49;30
55043;PMS5003;54902;50.420;18.854;2022-11-15T01:13:40;54;49;30
55043;PMS5003;54902;50.420;18.854;2022-11-15T01:14:11;40;37;23
55043;PMS5003;54902;50.420;18.854;2022-11-15T01:14:42;40;37;23
55043;PMS5003;54902;50.420;18.854;2022-11-15T01:15:14;40;37;23
55043;PMS5003;54902;50.420;18.854;2022-11-15T01:15:45;40;37;23
55043;PMS5003;54902;50.420;18.854;2022-11-15T01:16:16;40;37;23
55043;PMS5003;54902;50.420;18.854;2022-11-15T01:16:48;48;43;26
55043;PMS5003;54902;50.420;18.854;2022-11-15T01:17:20;48;43;26
55043;PMS5003;54902;50.420;18.854;2022-11-15T01:17:51;48;43;26
55043;PMS5003;54902;50.420;18.854;2022-11-15T01:18:22;48;43;26
55043;PMS5003;54902;50.420;18.854;2022-11-15T01:18:53;48;43;26
55043;PMS5003;54902;50.420;18.854;2022-11-15T01:19:24;48;43;26
55043;PMS5003;54902;50.420;18.854;2022-11-15T01:19:55;48;43;26
55043;PMS5003;54902;50.420;18.854;2022-11-15T01:20:26;48;43;26
55043;PMS5003;54902;50.420;18.854;2022-11-15T01:20:57;48;43;26
55043;PMS5003;54902;50.420;18.854;2022-11-15T01:21:28;53;48;29
55043;PMS5003;54902;50.420;18.854;2022-11-15T01:21:59;42;37;23
55043;PMS5003;54902;50.420;18.854;2022-11-15T01:22:30;42;37;23
55043;PMS5003;54902;50.420;18.854;2022-11-15T01:23:01;42;37;23
55043;PMS5003;54902;50.420;18.854;2022-11-15T01:23:32;42;37;23
55043;PMS5003;54902;50.420;18.854;2022-11-15T01:24:04;42;37;23
55043;PMS5003;54902;50.420;18.854;2022-11-15T01:24:35;42;37;23
55043;PMS5003;54902;50.420;18.854;2022-11-15T01:25:06;42;37;23
55043;PMS5003;54902;50.420;18.854;2022-11-15T01:25:37;42;37;23
55043;PMS5003;54902;50.420;18.854;2022-11-15T01:26:10;42;37;23
55043;PMS5003;54902;50.420;18.854;2022-11-15T01:26:42;42;37;23
55043;PMS5003;54902;50.420;18.854;2022-11-15T01:27:13;61;52;33
55043;PMS5003;54902;50.420;18.854;2022-11-15T01:27:44;61;52;33
55043;PMS5003;54902;50.420;18.854;2022-11-15T01:28:15;41;35;21
55043;PMS5003;54902;50.420;18.854;2022-11-15T01:28:46;41;35;21
55043;PMS5003;54902;50.420;18.854;2022-11-15T01:29:17;41;35;21
55043;PMS5003;54902;50.420;18.854;2022-11-15T01:29:48;41;35;21
55043;PMS5003;54902;50.420;18.854;2022-11-15T01:30:19;41;35;21
55043;PMS5003;54902;50.420;18.854;2022-11-15T01:30:50;41;35;21
55043;PMS5003;54902;50.420;18.854;2022-11-15T01:31:21;41;35;21
55043;PMS5003;54902;50.420;18.854;2022-11-15T01:31:52;41;35;21
55043;PMS5003;54902;50.420;18.854;2022-11-15T01:32:24;64;54;29
55043;PMS5003;54902;50.420;18.854;2022-11-15T01:32:55;64;54;29
55043;PMS5003;54902;50.420;18.854;2022-11-15T01:33:26;64;54;29
55043;PMS5003;54902;50.420;18.854;2022-11-15T01:33:58;64;54;29
55043;PMS5003;54902;50.420;18.854;2022-11-15T01:34:29;64;54;29
55043;PMS5003;54902;50.420;18.854;2022-11-15T01:35:00;39;34;15
55043;PMS5003;54902;50.420;18.854;2022-11-15T01:35:31;39;34;15
55043;PMS5003;54902;50.420;18.854;2022-11-15T01:36:05;39;34;15
55043;PMS5003;54902;50.420;18.854;2022-11-15T01:36:38;39;34;15
55043;PMS5003;54902;50.420;18.854;2022-11-15T01:37:09;39;34;15
55043;PMS5003;54902;50.420;18.854;2022-11-15T01:37:40;18;18;0
55043;PMS5003;54902;50.420;18.854;2022-11-15T01:38:11;38;33;19
55043;PMS5003;54902;50.420;18.854;2022-11-15T01:38:42;38;33;19
55043;PMS5003;54902;50.420;18.854;2022-11-15T01:39:13;38;33;19
55043;PMS5003;54902;50.420;18.854;2022-11-15T01:39:45;38;33;19
55043;PMS5003;54902;50.420;18.854;2022-11-15T01:40:16;38;33;19
55043;PMS5003;54902;50.420;18.854;2022-11-15T01:40:48;38;33;19
55043;PMS5003;54902;50.420;18.854;2022-11-15T01:41:20;38;33;19
55043;PMS5003;54902;50.420;18.854;2022-11-15T01:41:57;38;33;19
55043;PMS5003;54902;50.420;18.854;2022-11-15T01:42:28;38;33;19
55043;PMS5003;54902;50.420;18.854;2022-11-15T01:43:18;70;60;36
55043;PMS5003;54902;50.420;18.854;2022-11-15T01:43:42;70;60;36
55043;PMS5003;54902;50.420;18.854;2022-11-15T01:44:55;70;60;36
55043;PMS5003;54902;50.420;18.854;2022-11-15T01:45:26;70;60;36
55043;PMS5003;54902;50.420;18.854;2022-11-15T01:46:01;70;60;36
55043;PMS5003;54902;50.420;18.854;2022-11-15T01:46:40;70;60;36
55043;PMS5003;54902;50.420;18.854;2022-11-15T01:47:56;70;60;36
55043;PMS5003;54902;50.420;18.854;2022-11-15T01:48:33;70;60;36
55043;PMS5003;54902;50.420;18.854;2022-11-15T01:49:06;70;60;36
55043;PMS5003;54902;50.420;18.854;2022-11-15T01:50:29;70;60;36
55043;PMS5003;54902;50.420;18.854;2022-11-15T01:50:31;49;43;25
55043;PMS5003;54902;50.420;18.854;2022-11-15T01:51:06;49;43;25
55043;PMS5003;54902;50.420;18.854;2022-11-15T01:51:43;49;43;25
55043;PMS5003;54902;50.420;18.854;2022-11-15T01:52:15;49;43;25
55043;PMS5003;54902;50.420;18.854;2022-11-15T01:52:49;49;43;25
55043;PMS5003;54902;50.420;18.854;2022-11-15T01:53:21;49;43;25
55043;PMS5003;54902;50.420;18.854;2022-11-15T01:53:56;49;43;25
55043;PMS5003;54902;50.420;18.854;2022-11-15T01:54:33;49;43;25
55043;PMS5003;54902;50.420;18.854;2022-11-15T01:55:44;66;58;35
55043;PMS5003;54902;50.420;18.854;2022-11-15T01:56:16;66;58;35
55043;PMS5003;54902;50.420;18.854;2022-11-15T01:56:53;66;58;35
55043;PMS5003;54902;50.420;18.854;2022-11-15T01:57:30;66;58;35
55043;PMS5003;54902;50.420;18.854;2022-11-15T01:58:02;66;58;35
55043;PMS5003;54902;50.420;18.854;2022-11-15T01:58:35;58;50;30
55043;PMS5003;54902;50.420;18.854;2022-11-15T01:59:08;58;50;30
55043;PMS5003;54902;50.420;18.854;2022-11-15T01:59:42;58;50;30
55043;PMS5003;54902;50.420;18.854;2022-11-15T02:00:15;58;50;30
55043;PMS5003;54902;50.420;18.854;2022-11-15T02:00:48;58;48;27
55043;PMS5003;54902;50.420;18.854;2022-11-15T02:01:20;58;48;27
55043;PMS5003;54902;50.420;18.854;2022-11-15T02:01:53;58;48;27
55043;PMS5003;54902;50.420;18.854;2022-11-15T02:02:24;58;48;27
55043;PMS5003;54902;50.420;18.854;2022-11-15T02:02:55;58;48;27
55043;PMS5003;54902;50.420;18.854;2022-11-15T02:03:27;58;48;27
55043;PMS5003;54902;50.420;18.854;2022-11-15T02:04:46;58;48;27
55043;PMS5003;54902;50.420;18.854;2022-11-15T02:05:18;58;48;27
55043;PMS5003;54902;50.420;18.854;2022-11-15T02:05:49;58;48;27
55043;PMS5003;54902;50.420;18.854;2022-11-15T02:06:21;70;58;33
55043;PMS5003;54902;50.420;18.854;2022-11-15T02:06:52;70;58;33
55043;PMS5003;54902;50.420;18.854;2022-11-15T02:07:24;70;58;33
55043;PMS5003;54902;50.420;18.854;2022-11-15T02:07:56;70;58;33
55043;PMS5003;54902;50.420;18.854;2022-11-15T02:08:27;70;58;33
55043;PMS5003;54902;50.420;18.854;2022-11-15T02:08:59;70;58;33
55043;PMS5003;54902;50.420;18.854;2022-11-15T02:09:30;70;58;33
55043;PMS5003;54902;50.420;18.854;2022-11-15T02:10:04;70;58;33
55043;PMS5003;54902;50.420;18.854;2022-11-15T02:10:39;70;58;33
55043;PMS5003;54902;50.420;18.854;2022-11-15T02:11:10;70;58;33
55043;PMS5003;54902;50.420;18.854;2022-11-15T02:11:41;70;58;33
55043;PMS5003;54902;50.420;18.854;2022-11-15T02:12:14;70;58;33
55043;PMS5003;54902;50.420;18.854;2022-11-15T02:12:49;70;58;33
55043;PMS5003;54902;50.420;18.854;2022-11-15T02:13:22;70;58;33
55043;PMS5003;54902;50.420;18.854;2022-11-15T02:13:54;70;58;33
55043;PMS5003;54902;50.420;18.854;2022-11-15T02:14:27;70;58;33
55043;PMS5003;54902;50.420;18.854;2022-11-15T02:15:00;70;58;33
55043;PMS5003;54902;50.420;18.854;2022-11-15T02:15:34;70;58;33
55043;PMS5003;54902;50.420;18.854;2022-11-15T02:18:27;39;35;19
55043;PMS5003;54902;50.420;18.854;2022-11-15T02:20:41;47;40;24
55043;PMS5003;54902;50.420;18.854;2022-11-15T02:25:53;47;43;26
55043;PMS5003;54902;50.420;18.854;2022-11-15T02:28:44;47;43;26
55043;PMS5003;54902;50.420;18.854;2022-11-15T02:30:57;47;43;26
55043;PMS5003;54902;50.420;18.854;2022-11-15T02:35:17;57;51;31
55043;PMS5003;54902;50.420;18.854;2022-11-15T02:35:58;57;51;31
55043;PMS5003;54902;50.420;18.854;2022-11-15T02:36:54;57;51;31
55043;PMS5003;54902;50.420;18.854;2022-11-15T02:38:47;57;51;31
55043;PMS5003;54902;50.420;18.854;2022-11-15T02:39:35;44;37;22
55043;PMS5003;54902;50.420;18.854;2022-11-15T02:40:17;44;37;22
55043;PMS5003;54902;50.420;18.854;2022-11-15T02:40:59;44;37;22
55043;PMS5003;54902;50.420;18.854;2022-11-15T02:43:12;47;41;25
55043;PMS5003;54902;50.420;18.854;2022-11-15T02:44:02;47;41;25
55043;PMS5003;54902;50.420;18.854;2022-11-15T02:44:42;47;41;25
55043;PMS5003;54902;50.420;18.854;2022-11-15T02:45:21;47;41;25
55043;PMS5003;54902;50.420;18.854;2022-11-15T02:46:41;56;45;28
55043;PMS5003;54902;50.420;18.854;2022-11-15T02:47:31;56;45;28
55043;PMS5003;54902;50.420;18.854;2022-11-15T02:48:07;56;45;28
55043;PMS5003;54902;50.420;18.854;2022-11-15T02:48:41;56;45;28
55043;PMS5003;54902;50.420;18.854;2022-11-15T02:49:15;56;45;28
55043;PMS5003;54902;50.420;18.854;2022-11-15T02:49:47;56;45;28
55043;PMS5003;54902;50.420;18.854;2022-11-15T02:50:21;56;45;28
55043;PMS5003;54902;50.420;18.854;2022-11-15T02:50:57;56;45;28
55043;PMS5003;54902;50.420;18.854;2022-11-15T02:51:29;56;45;28
55043;PMS5003;54902;50.420;18.854;2022-11-15T02:52:00;56;45;28
55043;PMS5003;54902;50.420;18.854;2022-11-15T02:52:31;67;54;33
55043;PMS5003;54902;50.420;18.854;2022-11-15T02:53:02;67;54;33
55043;PMS5003;54902;50.420;18.854;2022-11-15T02:53:34;67;54;33
55043;PMS5003;54902;50.420;18.854;2022-11-15T02:54:06;67;54;33
55043;PMS5003;54902;50.420;18.854;2022-11-15T02:54:37;67;54;33
55043;PMS5003;54902;50.420;18.854;2022-11-15T02:55:51;67;54;33
55043;PMS5003;54902;50.420;18.854;2022-11-15T02:56:25;67;54;33
55043;PMS5003;54902;50.420;18.854;2022-11-15T02:56:58;67;54;33
55043;PMS5003;54902;50.420;18.854;2022-11-15T02:57:52;67;54;33
55043;PMS5003;54902;50.420;18.854;2022-11-15T02:59:50;67;54;33
55043;PMS5003;54902;50.420;18.854;2022-11-15T03:00:27;67;54;33
55043;PMS5003;54902;50.420;18.854;2022-11-15T03:01:12;67;54;33
55043;PMS5003;54902;50.420;18.854;2022-11-15T03:01:56;67;54;33
55043;PMS5003;54902;50.420;18.854;2022-11-15T03:03:18;67;54;33
55043;PMS5003;54902;50.420;18.854;2022-11-15T03:03:59;67;54;33
55043;PMS5003;54902;50.420;18.854;2022-11-15T03:04:42;67;54;33
55043;PMS5003;54902;50.420;18.854;2022-11-15T03:06:48;67;54;33
55043;PMS5003;54902;50.420;18.854;2022-11-15T03:08:55;67;54;33
55043;PMS5003;54902;50.420;18.854;2022-11-15T03:09:45;67;54;33
55043;PMS5003;54902;50.420;18.854;2022-11-15T03:10:17;67;54;33
55043;PMS5003;54902;50.420;18.854;2022-11-15T03:11:38;67;54;33
55043;PMS5003;54902;50.420;18.854;2022-11-15T03:12:27;67;54;33
55043;PMS5003;54902;50.420;18.854;2022-11-15T03:12:59;67;54;33
55043;PMS5003;54902;50.420;18.854;2022-11-15T03:13:40;67;54;33
55043;PMS5003;54902;50.420;18.854;2022-11-15T03:14:21;47;37;21
55043;PMS5003;54902;50.420;18.854;2022-11-15T03:15:09;47;37;21
55043;PMS5003;54902;50.420;18.854;2022-11-15T03:17:59;47;37;21
55043;PMS5003;54902;50.420;18.854;2022-11-15T03:18:36;47;37;21
55043;PMS5003;54902;50.420;18.854;2022-11-15T03:19:14;53;47;25
55043;PMS5003;54902;50.420;18.854;2022-11-15T03:19:54;53;47;25
55043;PMS5003;54902;50.420;18.854;2022-11-15T03:20:29;53;47;25
55043;PMS5003;54902;50.420;18.854;2022-11-15T03:21:05;53;47;25
55043;PMS5003;54902;50.420;18.854;2022-11-15T03:21:39;53;47;25
55043;PMS5003;54902;50.420;18.854;2022-11-15T03:22:12;53;47;25
55043;PMS5003;54902;50.420;18.854;2022-11-15T03:22:47;53;47;25
55043;PMS5003;54902;50.420;18.854;2022-11-15T03:23:21;53;47;25
55043;PMS5003;54902;50.420;18.854;2022-11-15T03:23:53;53;47;25
55043;PMS5003;54902;50.420;18.854;2022-11-15T03:24:28;53;47;25
55043;PMS5003;54902;50.420;18.854;2022-11-15T03:25:04;58;51;27
55043;PMS5003;54902;50.420;18.854;2022-11-15T03:25:42;58;51;27
55043;PMS5003;54902;50.420;18.854;2022-11-15T03:26:18;58;51;27
55043;PMS5003;54902;50.420;18.854;2022-11-15T03:26:54;58;51;27
55043;PMS5003;54902;50.420;18.854;2022-11-15T03:27:30;58;51;27
55043;PMS5003;54902;50.420;18.854;2022-11-15T03:28:06;58;51;27
55043;PMS5003;54902;50.420;18.854;2022-11-15T03:28:43;58;51;27
55043;PMS5003;54902;50.420;18.854;2022-11-15T03:29:22;47;42;23
55043;PMS5003;54902;50.420;18.854;2022-11-15T03:30:00;47;42;23
55043;PMS5003;54902;50.420;18.854;2022-11-15T03:30:34;47;42;23
55043;PMS5003;54902;50.420;18.854;2022-11-15T03:31:08;43;39;23
55043;PMS5003;54902;50.420;18.854;2022-11-15T03:31:57;43;39;23
55043;PMS5003;54902;50.420;18.854;2022-11-15T03:32:42;43;39;23
55043;PMS5003;54902;50.420;18.854;2022-11-15T03:33:18;43;39;23
55043;PMS5003;54902;50.420;18.854;2022-11-15T03:33:51;43;39;23
55043;PMS5003;54902;50.420;18.854;2022-11-15T03:34:31;43;39;23
55043;PMS5003;54902;50.420;18.854;2022-11-15T03:35:17;43;39;23
55043;PMS5003;54902;50.420;18.854;2022-11-15T03:35:46;43;39;23
55043;PMS5003;54902;50.420;18.854;2022-11-15T03:36:19;43;39;23
55043;PMS5003;54902;50.420;18.854;2022-11-15T03:36:53;43;39;23
55043;PMS5003;54902;50.420;18.854;2022-11-15T03:37:28;60;52;30
55043;PMS5003;54902;50.420;18.854;2022-11-15T03:38:07;60;52;30
55043;PMS5003;54902;50.420;18.854;2022-11-15T03:38:47;60;52;30
55043;PMS5003;54902;50.420;18.854;2022-11-15T03:39:19;60;52;30
55043;PMS5003;54902;50.420;18.854;2022-11-15T03:39:52;60;52;30
55043;PMS5003;54902;50.420;18.854;2022-11-15T03:41:05;60;52;30
55043;PMS5003;54902;50.420;18.854;2022-11-15T03:43:08;49;43;25
55043;PMS5003;54902;50.420;18.854;2022-11-15T03:43:57;39;34;18
55043;PMS5003;54902;50.420;18.854;2022-11-15T03:45:19;39;34;18
55043;PMS5003;54902;50.420;18.854;2022-11-15T03:46:01;39;34;18
55043;PMS5003;54902;50.420;18.854;2022-11-15T03:46:44;39;34;18
55043;PMS5003;54902;50.420;18.854;2022-11-15T03:47:27;39;34;18
55043;PMS5003;54902;50.420;18.854;2022-11-15T03:48:07;39;34;18
55043;PMS5003;54902;50.420;18.854;2022-11-15T03:48:46;39;34;18
55043;PMS5003;54902;50.420;18.854;2022-11-15T03:50:07;39;34;18
55043;PMS5003;54902;50.420;18.854;2022-11-15T03:50:42;61;52;30
55043;PMS5003;54902;50.420;18.854;2022-11-15T03:51:14;61;52;30
55043;PMS5003;54902;50.420;18.854;2022-11-15T03:51:45;61;52;30
55043;PMS5003;54902;50.420;18.854;2022-11-15T03:52:17;61;52;30
55043;PMS5003;54902;50.420;18.854;2022-11-15T03:52:50;61;52;30
55043;PMS5003;54902;50.420;18.854;2022-11-15T03:53:21;61;52;30
55043;PMS5003;54902;50.420;18.854;2022-11-15T03:53:52;61;52;30
55043;PMS5003;54902;50.420;18.854;2022-11-15T03:54:23;61;52;30
55043;PMS5003;54902;50.420;18.854;2022-11-15T03:54:55;61;52;30
55043;PMS5003;54902;50.420;18.854;2022-11-15T03:55:27;61;52;30
55043;PMS5003;54902;50.420;18.854;2022-11-15T03:55:58;61;52;30
55043;PMS5003;54902;50.420;18.854;2022-11-15T03:56:29;61;52;30
55043;PMS5003;54902;50.420;18.854;2022-11-15T03:57:01;61;52;30
55043;PMS5003;54902;50.420;18.854;2022-11-15T03:57:32;61;52;30
55043;PMS5003;54902;50.420;18.854;2022-11-15T03:58:03;61;52;30
55043;PMS5003;54902;50.420;18.854;2022-11-15T03:58:34;61;52;30
55043;PMS5003;54902;50.420;18.854;2022-11-15T03:59:05;61;52;30
55043;PMS5003;54902;50.420;18.854;2022-11-15T03:59:36;61;52;30
55043;PMS5003;54902;50.420;18.854;2022-11-15T04:00:07;61;52;30
55043;PMS5003;54902;50.420;18.854;2022-11-15T04:00:39;61;52;30
55043;PMS5003;54902;50.420;18.854;2022-11-15T04:01:10;61;52;30
55043;PMS5003;54902;50.420;18.854;2022-11-15T04:01:41;61;52;30
55043;PMS5003;54902;50.420;18.854;2022-11-15T04:02:12;61;52;30
55043;PMS5003;54902;50.420;18.854;2022-11-15T04:02:44;61;52;30
55043;PMS5003;54902;50.420;18.854;2022-11-15T04:03:15;61;52;30
55043;PMS5003;54902;50.420;18.854;2022-11-15T04:03:46;61;52;30
55043;PMS5003;54902;50.420;18.854;2022-11-15T04:04:17;61;52;30
55043;PMS5003;54902;50.420;18.854;2022-11-15T04:04:48;61;52;30
55043;PMS5003;54902;50.420;18.854;2022-11-15T04:05:19;61;52;30
55043;PMS5003;54902;50.420;18.854;2022-11-15T04:05:50;61;52;30
55043;PMS5003;54902;50.420;18.854;2022-11-15T04:06:21;40;35;21
55043;PMS5003;54902;50.420;18.854;2022-11-15T04:06:53;40;35;21
55043;PMS5003;54902;50.420;18.854;2022-11-15T04:07:24;40;35;21